createdAt,value
2018-04-27T00:01:22.379Z,99.90
2018-04-27T00:03:49.947Z,99.90
2018-04-27T00:06:17.520Z,99.90
2018-04-27T00:08:45.120Z,99.90
2018-04-27T00:11:13.458Z,99.90
2018-04-27T00:13:41.026Z,99.90
2018-04-27T00:16:08.618Z,99.90
2018-04-27T00:18:36.191Z,99.90
2018-04-27T00:21:03.759Z,99.90
2018-04-27T00:23:31.359Z,99.90
2018-04-27T00:25:58.916Z,99.90
2018-04-27T00:28:26.476Z,99.90
2018-04-27T00:30:54.074Z,99.90
2018-04-27T00:33:21.670Z,99.90
2018-04-27T00:35:49.243Z,99.90
2018-04-27T00:38:16.829Z,99.20
2018-04-27T00:40:44.396Z,99.30
2018-04-27T00:43:11.965Z,98.90
2018-04-27T00:45:39.572Z,98.80
2018-04-27T00:48:07.146Z,99.80
2018-04-27T00:50:34.730Z,99.90
2018-04-27T00:53:14.170Z,99.90
2018-04-27T00:55:41.746Z,99.90
2018-04-27T00:58:09.327Z,99.90
2018-04-27T01:00:36.938Z,99.90
2018-04-27T01:03:05.286Z,99.90
2018-04-27T01:05:32.869Z,99.90
2018-04-27T01:08:00.475Z,99.90
2018-04-27T01:10:28.809Z,99.90
2018-04-27T01:12:56.381Z,99.90
2018-04-27T01:15:23.985Z,99.90
2018-04-27T01:17:51.562Z,99.90
2018-04-27T01:20:19.132Z,99.90
2018-04-27T01:22:46.739Z,99.90
2018-04-27T01:25:15.070Z,99.90
2018-04-27T01:27:42.639Z,99.90
2018-04-27T01:30:10.234Z,99.90
2018-04-27T01:32:37.810Z,99.90
2018-04-27T01:35:05.381Z,99.90
2018-04-27T01:37:32.999Z,99.90
2018-04-27T01:40:01.330Z,98.40
2018-04-27T01:42:28.890Z,98.40
2018-04-27T01:44:56.492Z,99.60
2018-04-27T01:47:24.066Z,97.50
2018-04-27T01:49:51.640Z,95.60
2018-04-27T01:52:19.246Z,95.60
2018-04-27T01:54:47.590Z,94.60
2018-04-27T01:57:15.150Z,94.60
2018-04-27T01:59:42.754Z,93.00
2018-04-27T02:02:10.335Z,92.70
2018-04-27T02:04:37.911Z,92.80
2018-04-27T02:07:05.529Z,93.90
2018-04-27T02:09:33.128Z,93.60
2018-04-27T02:12:00.702Z,96.40
2018-04-27T02:14:28.299Z,96.20
2018-04-27T02:16:55.862Z,95.90
2018-04-27T02:19:23.426Z,97.30
2018-04-27T02:21:51.028Z,97.00
2018-04-27T02:24:18.599Z,97.20
2018-04-27T02:26:46.178Z,97.90
2018-04-27T02:29:13.769Z,98.40
2018-04-27T02:31:42.119Z,99.80
2018-04-27T02:34:09.774Z,99.80
2018-04-27T02:36:37.387Z,99.90
2018-04-27T02:39:04.963Z,99.90
2018-04-27T02:41:33.307Z,99.90
2018-04-27T02:44:00.984Z,99.90
2018-04-27T02:46:28.559Z,99.90
2018-04-27T02:48:56.130Z,99.90
2018-04-27T02:51:23.743Z,99.90
2018-04-27T02:53:51.321Z,99.90
2018-04-27T02:56:18.966Z,99.90
2018-04-27T02:58:46.630Z,99.90
2018-04-27T03:01:14.207Z,99.90
2018-04-27T03:03:41.874Z,99.90
2018-04-27T03:06:09.478Z,99.90
2018-04-27T03:08:37.071Z,99.90
2018-04-27T03:11:05.418Z,99.90
2018-04-27T03:13:33.065Z,99.90
2018-04-27T03:16:00.663Z,99.90
2018-04-27T03:18:28.244Z,99.90
2018-04-27T03:20:55.834Z,99.90
2018-04-27T03:23:23.406Z,99.90
2018-04-27T03:25:50.993Z,99.90
2018-04-27T03:28:18.586Z,99.90
2018-04-27T03:30:46.159Z,99.90
2018-04-27T03:33:13.734Z,99.90
2018-04-27T03:35:41.334Z,99.90
2018-04-27T03:38:08.935Z,99.90
2018-04-27T03:40:36.539Z,99.90
2018-04-27T03:43:04.160Z,99.90
2018-04-27T03:45:31.725Z,99.90
2018-04-27T03:47:59.299Z,99.90
2018-04-27T03:50:26.904Z,99.90
2018-04-27T03:52:54.475Z,99.90
2018-04-27T03:55:22.045Z,99.90
2018-04-27T03:57:49.650Z,99.90
2018-04-27T04:00:29.787Z,99.90
2018-04-27T04:03:09.207Z,99.90
2018-04-27T04:05:36.778Z,99.90
2018-04-27T04:08:04.354Z,99.90
2018-04-27T04:10:31.963Z,99.90
2018-04-27T04:12:59.539Z,99.90
2018-04-27T04:15:27.127Z,99.90
2018-04-27T04:17:55.494Z,99.90
2018-04-27T04:20:23.067Z,99.90
2018-04-27T04:22:51.041Z,99.90
2018-04-27T04:25:18.702Z,99.90
2018-04-27T04:27:46.275Z,99.90
2018-04-27T04:30:13.837Z,99.90
2018-04-27T04:32:41.436Z,99.90
2018-04-27T04:35:09.007Z,99.90
2018-04-27T04:37:36.569Z,99.90
2018-04-27T04:40:04.550Z,99.90
2018-04-27T04:42:32.118Z,99.90
2018-04-27T04:44:59.693Z,99.90
2018-04-27T04:47:27.294Z,99.90
2018-04-27T04:49:54.873Z,99.90
2018-04-27T04:52:22.454Z,99.90
2018-04-27T04:54:50.906Z,98.40
2018-04-27T04:57:18.487Z,98.40
2018-04-27T04:59:46.061Z,98.90
2018-04-27T05:02:13.843Z,98.40
2018-04-27T05:04:41.504Z,92.30
2018-04-27T05:07:09.078Z,92.50
2018-04-27T05:09:36.693Z,93.10
2018-04-27T05:12:04.277Z,90.70
2018-04-27T05:14:32.624Z,92.10
2018-04-27T05:17:00.235Z,92.10
2018-04-27T05:19:28.572Z,90.40
2018-04-27T05:21:56.148Z,90.30
2018-04-27T05:24:23.880Z,89.50
2018-04-27T05:26:52.226Z,88.40
2018-04-27T05:29:19.807Z,88.40
2018-04-27T05:31:47.403Z,79.40
2018-04-27T05:34:14.971Z,84.10
2018-04-27T05:36:42.546Z,79.40
2018-04-27T05:39:10.143Z,78.20
2018-04-27T05:41:38.483Z,77.40
2018-04-27T05:44:06.054Z,77.30
2018-04-27T05:46:33.667Z,75.80
2018-04-27T05:49:02.014Z,73.30
2018-04-27T05:51:29.606Z,73.20
2018-04-27T05:53:57.202Z,65.50
2018-04-27T05:56:25.538Z,43.20
2018-04-27T05:58:53.117Z,44.00
2018-04-27T06:01:20.715Z,40.40
2018-04-27T06:04:00.241Z,39.50
2018-04-27T06:06:27.838Z,42.10
2018-04-27T06:08:55.410Z,41.50
2018-04-27T06:11:22.983Z,44.30
2018-04-27T06:13:50.577Z,41.50
2018-04-27T06:16:18.151Z,38.30
2018-04-27T06:18:45.874Z,35.80
2018-04-27T06:21:13.473Z,34.70
2018-04-27T06:23:41.051Z,33.60
2018-04-27T06:26:08.671Z,32.70
2018-04-27T06:28:42.196Z,30.10
2018-04-27T06:31:09.762Z,29.60
2018-04-27T06:33:37.330Z,30.10
2018-04-27T06:36:04.937Z,32.20
2018-04-27T06:38:32.501Z,27.50
2018-04-27T06:41:00.067Z,27.90
2018-04-27T06:43:27.661Z,26.10
2018-04-27T06:45:55.242Z,27.20
2018-04-27T06:48:22.813Z,25.50
2018-04-27T06:50:50.416Z,23.60
2018-04-27T06:53:17.985Z,22.80
2018-04-27T06:55:45.562Z,23.30
2018-04-27T06:58:13.138Z,19.20
2018-04-27T07:00:40.694Z,19.10
2018-04-27T07:03:08.247Z,18.60
2018-04-27T07:05:35.828Z,16.40
2018-04-27T07:08:03.378Z,16.50
2018-04-27T07:10:30.925Z,17.60
2018-04-27T07:12:59.287Z,14.00
2018-04-27T07:15:26.843Z,14.00
2018-04-27T07:17:54.398Z,13.10
2018-04-27T07:20:21.988Z,13.90
2018-04-27T07:22:49.547Z,14.40
2018-04-27T07:25:17.098Z,14.50
2018-04-27T07:27:44.679Z,15.40
2018-04-27T07:30:12.226Z,17.10
2018-04-27T07:32:40.544Z,15.60
2018-04-27T07:35:08.119Z,15.60
2018-04-27T07:37:35.695Z,16.70
2018-04-27T07:40:03.246Z,17.60
2018-04-27T07:42:30.823Z,17.50
2018-04-27T07:44:58.369Z,19.00
2018-04-27T07:47:25.942Z,16.90
2018-04-27T07:49:53.541Z,17.40
2018-04-27T07:52:21.124Z,17.90
2018-04-27T07:54:48.697Z,20.00
2018-04-27T07:57:16.287Z,18.50
2018-04-27T07:59:43.864Z,20.80
2018-04-27T08:02:11.508Z,19.10
2018-04-27T08:04:39.062Z,16.50
2018-04-27T08:07:07.414Z,16.90
2018-04-27T08:09:34.950Z,16.80
2018-04-27T08:12:02.531Z,16.20
2018-04-27T08:14:30.111Z,17.70
2018-04-27T08:16:57.687Z,19.50
2018-04-27T08:19:25.289Z,18.20
2018-04-27T08:21:53.626Z,17.30
2018-04-27T08:24:21.213Z,17.20
2018-04-27T08:26:48.811Z,17.30
2018-04-27T08:29:16.368Z,18.40
2018-04-27T08:31:43.923Z,16.30
2018-04-27T08:34:11.498Z,13.20
2018-04-27T08:36:39.058Z,13.60
2018-04-27T08:39:06.651Z,14.40
2018-04-27T08:41:34.233Z,14.00
2018-04-27T08:44:01.784Z,13.10
2018-04-27T08:46:30.133Z,8.90
2018-04-27T08:48:57.715Z,8.70
2018-04-27T08:51:26.030Z,7.80
2018-04-27T08:53:53.577Z,7.80
2018-04-27T08:56:21.154Z,8.40
2018-04-27T08:58:49.472Z,5.10
2018-04-27T09:01:17.022Z,4.70
2018-04-27T09:03:45.356Z,3.70
2018-04-27T09:06:12.925Z,3.70
2018-04-27T09:08:40.488Z,4.40
2018-04-27T09:11:08.056Z,4.90
2018-04-27T09:13:35.602Z,5.40
2018-04-27T09:16:03.916Z,7.90
2018-04-27T09:18:31.495Z,7.80
2018-04-27T09:20:59.036Z,1.10
2018-04-27T09:23:27.359Z,4.70
2018-04-27T09:25:54.930Z,4.60
2018-04-27T09:28:22.478Z,2.60
2018-04-27T09:30:50.789Z,2.00
2018-04-27T09:33:18.349Z,2.00
2018-04-27T09:35:46.671Z,3.40
2018-04-27T09:38:14.214Z,3.40
2018-04-27T09:40:41.789Z,2.80
2018-04-27T09:43:09.347Z,1.20
2018-04-27T09:45:37.655Z,4.00
2018-04-27T09:48:05.239Z,3.50
2018-04-27T09:50:32.799Z,3.50
2018-04-27T09:53:00.347Z,5.70
2018-04-27T09:55:28.687Z,4.50
2018-04-27T09:57:56.234Z,4.50
2018-04-27T10:00:23.774Z,6.40
2018-04-27T10:02:51.341Z,4.70
2018-04-27T10:05:18.877Z,3.70
2018-04-27T10:07:46.422Z,5.30
2018-04-27T10:10:14.000Z,6.80
2018-04-27T10:12:41.589Z,4.50
2018-04-27T10:15:09.125Z,4.70
2018-04-27T10:17:37.466Z,5.60
2018-04-27T10:20:05.019Z,5.60
2018-04-27T10:22:32.600Z,5.40
2018-04-27T10:25:00.165Z,3.90
2018-04-27T10:27:27.702Z,3.60
2018-04-27T10:29:56.067Z,2.30
2018-04-27T10:32:23.640Z,2.30
2018-04-27T10:34:51.193Z,2.90
2018-04-27T10:37:18.734Z,1.10
2018-04-27T10:39:46.308Z,3.10
2018-04-27T10:42:13.846Z,6.10
2018-04-27T10:44:42.157Z,4.50
2018-04-27T10:47:09.734Z,4.10
2018-04-27T10:49:37.270Z,2.30
2018-04-27T10:52:04.821Z,2.00
2018-04-27T10:54:32.395Z,2.60
2018-04-27T10:56:59.943Z,3.60
2018-04-27T10:59:27.487Z,2.60
2018-04-27T11:01:55.063Z,3.40
2018-04-27T11:04:22.614Z,2.90
2018-04-27T11:06:50.926Z,3.00
2018-04-27T11:09:18.525Z,3.00
2018-04-27T11:11:46.081Z,1.00
2018-04-27T11:14:13.631Z,3.40
2018-04-27T11:16:42.046Z,3.60
2018-04-27T11:19:10.340Z,6.90
2018-04-27T11:21:37.887Z,6.90
2018-04-27T11:24:05.484Z,3.70
2018-04-27T11:26:33.035Z,4.90
2018-04-27T11:29:01.342Z,1.90
2018-04-27T11:31:28.918Z,1.90
2018-04-27T11:33:56.466Z,3.30
2018-04-27T11:36:24.774Z,3.30
2018-04-27T11:38:52.342Z,3.30
2018-04-27T11:41:19.971Z,3.30
2018-04-27T11:43:47.466Z,3.10
2018-04-27T11:46:15.807Z,3.10
2018-04-27T11:48:43.346Z,3.10
2018-04-27T11:51:11.667Z,4.50
2018-04-27T11:53:39.234Z,4.50
2018-04-27T11:56:06.792Z,2.60
2018-04-27T11:58:34.349Z,3.60
2018-04-27T12:01:01.928Z,3.10
2018-04-27T12:03:29.468Z,4.90
2018-04-27T12:05:57.014Z,3.00
2018-04-27T12:08:24.583Z,3.50
2018-04-27T12:10:52.124Z,4.00
2018-04-27T12:13:19.670Z,2.10
2018-04-27T12:15:48.014Z,3.60
2018-04-27T12:18:15.562Z,3.70
2018-04-27T12:20:43.111Z,3.10
2018-04-27T12:23:11.451Z,3.60
2018-04-27T12:25:39.003Z,3.60
2018-04-27T12:28:06.549Z,1.50
2018-04-27T12:30:34.165Z,2.20
2018-04-27T12:33:01.719Z,1.90
2018-04-27T12:35:29.271Z,3.90
2018-04-27T12:37:56.850Z,2.00
2018-04-27T12:40:24.403Z,1.50
2018-04-27T12:42:51.965Z,2.20
2018-04-27T12:45:20.326Z,2.00
2018-04-27T12:47:47.871Z,2.00
2018-04-27T12:50:15.433Z,2.80
2018-04-27T12:52:43.006Z,1.70
2018-04-27T12:55:10.559Z,1.80
2018-04-27T12:57:38.151Z,2.40
2018-04-27T13:00:05.724Z,1.00
2018-04-27T13:02:33.298Z,1.00
2018-04-27T13:05:00.878Z,2.20
2018-04-27T13:07:28.442Z,2.90
2018-04-27T13:09:55.982Z,1.90
2018-04-27T13:12:24.387Z,1.00
2018-04-27T13:14:51.877Z,1.00
2018-04-27T13:17:19.418Z,1.00
2018-04-27T13:19:46.965Z,1.00
2018-04-27T13:22:14.538Z,1.20
2018-04-27T13:24:42.078Z,1.00
2018-04-27T13:27:09.650Z,1.00
2018-04-27T13:29:37.253Z,1.50
2018-04-27T13:32:04.797Z,1.50
2018-04-27T13:34:32.391Z,1.50
2018-04-27T13:36:59.983Z,2.00
2018-04-27T13:39:28.323Z,1.00
2018-04-27T13:41:55.866Z,1.00
2018-04-27T13:44:24.202Z,2.20
2018-04-27T13:46:51.782Z,1.80
2018-04-27T13:49:19.332Z,1.00
2018-04-27T13:51:46.943Z,1.50
2018-04-27T13:54:14.484Z,2.60
2018-04-27T13:56:42.031Z,1.10
2018-04-27T13:59:10.428Z,1.00
2018-04-27T14:01:37.973Z,1.00
2018-04-27T14:04:05.554Z,1.60
2018-04-27T14:06:33.904Z,1.70
2018-04-27T14:09:01.478Z,1.60
2018-04-27T14:11:29.021Z,2.10
2018-04-27T14:13:56.611Z,2.00
2018-04-27T14:16:24.194Z,2.90
2018-04-27T14:18:51.754Z,3.10
2018-04-27T14:21:19.358Z,4.30
2018-04-27T14:23:47.696Z,4.70
2018-04-27T14:26:15.275Z,4.60
2018-04-27T14:28:42.876Z,3.20
2018-04-27T14:31:10.688Z,4.80
2018-04-27T14:33:39.036Z,4.90
2018-04-27T14:36:06.781Z,4.90
2018-04-27T14:38:34.351Z,5.00
2018-04-27T14:41:02.062Z,4.50
2018-04-27T14:43:29.655Z,5.40
2018-04-27T14:45:57.221Z,4.80
2018-04-27T14:48:24.822Z,4.70
2018-04-27T14:50:52.419Z,5.40
2018-04-27T14:53:19.970Z,4.80
2018-04-27T14:55:47.570Z,5.90
2018-04-27T14:58:15.361Z,4.90
2018-04-27T15:00:42.937Z,7.30
2018-04-27T15:03:10.490Z,6.70
2018-04-27T15:05:38.329Z,6.90
2018-04-27T15:08:05.982Z,7.20
2018-04-27T15:10:33.591Z,6.50
2018-04-27T15:13:01.949Z,7.30
2018-04-27T15:15:29.527Z,7.30
2018-04-27T15:17:57.769Z,7.60
2018-04-27T15:20:25.370Z,7.60
2018-04-27T15:22:52.933Z,7.10
2018-04-27T15:25:20.524Z,7.30
2018-04-27T15:27:48.427Z,7.10
2018-04-27T15:30:16.822Z,7.80
2018-04-27T15:32:44.394Z,7.80
2018-04-27T15:35:13.061Z,7.40
2018-04-27T15:37:40.655Z,7.30
2018-04-27T15:40:09.166Z,7.70
2018-04-27T15:42:37.056Z,7.40
2018-04-27T15:45:06.846Z,7.30
2018-04-27T15:47:34.547Z,7.50
2018-04-27T15:50:03.083Z,8.00
2018-04-27T15:52:30.652Z,8.00
2018-04-27T15:54:58.301Z,7.50
2018-04-27T15:57:26.718Z,7.30
2018-04-27T15:59:54.406Z,7.30
2018-04-27T16:02:22.372Z,7.70
2018-04-27T16:04:50.016Z,7.20
2018-04-27T16:07:18.355Z,7.00
2018-04-27T16:09:45.931Z,6.90
2018-04-27T16:12:13.544Z,7.10
2018-04-27T16:14:42.266Z,7.60
2018-04-27T16:17:09.830Z,7.60
2018-04-27T16:19:38.544Z,7.90
2018-04-27T16:22:06.182Z,8.00
2018-04-27T16:24:33.745Z,7.10
2018-04-27T16:27:01.338Z,7.70
2018-04-27T16:29:29.687Z,7.50
2018-04-27T16:31:57.239Z,7.50
2018-04-27T16:34:24.808Z,6.80
2018-04-27T16:36:52.378Z,8.40
2018-04-27T16:39:19.947Z,8.30
2018-04-27T16:41:48.300Z,8.00
2018-04-27T16:44:16.953Z,8.00
2018-04-27T16:46:44.507Z,8.00
2018-04-27T16:49:12.299Z,7.90
2018-04-27T16:51:39.966Z,7.90
2018-04-27T16:54:07.770Z,7.30
2018-04-27T16:56:35.398Z,8.00
2018-04-27T16:59:03.004Z,8.80
2018-04-27T17:01:30.604Z,8.80
2018-04-27T17:03:58.208Z,9.20
2018-04-27T17:06:26.677Z,9.40
2018-04-27T17:08:54.375Z,9.40
2018-04-27T17:11:23.722Z,10.20
2018-04-27T17:13:51.692Z,10.10
2018-04-27T17:16:19.414Z,9.90
2018-04-27T17:18:47.513Z,10.50
2018-04-27T17:21:15.497Z,12.20
2018-04-27T17:23:43.050Z,10.80
2018-04-27T17:26:10.656Z,10.30
2018-04-27T17:28:38.402Z,11.10
2018-04-27T17:31:05.986Z,11.80
2018-04-27T17:33:33.593Z,11.60
2018-04-27T17:36:01.157Z,12.20
2018-04-27T17:38:28.722Z,12.90
2018-04-27T17:40:57.103Z,13.60
2018-04-27T17:43:24.738Z,13.60
2018-04-27T17:45:52.350Z,13.50
2018-04-27T17:48:19.927Z,13.80
2018-04-27T17:50:48.271Z,14.80
2018-04-27T17:53:15.841Z,14.70
2018-04-27T17:55:43.486Z,15.30
2018-04-27T17:58:11.042Z,15.60
2018-04-27T18:00:39.376Z,16.70
2018-04-27T18:03:06.984Z,16.30
2018-04-27T18:05:34.558Z,16.20
2018-04-27T18:08:02.126Z,16.20
2018-04-27T18:10:30.530Z,17.80
2018-04-27T18:12:58.114Z,17.80
2018-04-27T18:15:25.694Z,18.30
2018-04-27T18:17:54.067Z,19.20
2018-04-27T18:20:21.638Z,19.20
2018-04-27T18:22:49.352Z,19.60
2018-04-27T18:25:16.947Z,20.00
2018-04-27T18:27:44.692Z,19.80
2018-04-27T18:30:12.254Z,22.50
2018-04-27T18:32:39.909Z,23.90
2018-04-27T18:35:07.511Z,22.30
2018-04-27T18:37:36.086Z,24.30
2018-04-27T18:40:04.177Z,24.10
2018-04-27T18:42:32.660Z,25.30
2018-04-27T18:45:00.666Z,22.70
2018-04-27T18:47:29.158Z,21.70
2018-04-27T18:49:58.896Z,24.90
2018-04-27T18:52:27.764Z,27.60
2018-04-27T18:54:57.180Z,28.50
2018-04-27T18:57:25.589Z,28.10
2018-04-27T18:59:53.179Z,28.00
2018-04-27T19:02:21.544Z,30.90
2018-04-27T19:04:49.120Z,30.80
2018-04-27T19:07:16.690Z,29.90
2018-04-27T19:09:44.289Z,30.20
2018-04-27T19:12:12.630Z,30.90
2018-04-27T19:14:40.295Z,30.90
2018-04-27T19:17:07.847Z,32.70
2018-04-27T19:19:35.643Z,32.40
2018-04-27T19:22:04.282Z,32.00
2018-04-27T19:24:32.694Z,32.50
2018-04-27T19:27:02.178Z,33.60
2018-04-27T19:29:29.891Z,33.60
2018-04-27T19:31:58.271Z,34.70
2018-04-27T19:34:26.001Z,34.70
2018-04-27T19:36:54.210Z,34.40
2018-04-27T19:39:21.807Z,36.10
2018-04-27T19:41:49.381Z,37.00
2018-04-27T19:44:16.974Z,37.50
2018-04-27T19:46:46.129Z,38.20
2018-04-27T19:49:16.217Z,38.20
2018-04-27T19:51:44.186Z,39.00
2018-04-27T19:54:11.973Z,38.80
2018-04-27T19:56:40.360Z,39.80
2018-04-27T19:59:08.716Z,40.00
2018-04-27T20:01:36.455Z,39.90
2018-04-27T20:04:04.040Z,41.40
2018-04-27T20:06:31.986Z,41.80
2018-04-27T20:09:00.562Z,41.30
2018-04-27T20:11:28.283Z,41.20
2018-04-27T20:13:56.785Z,42.40
2018-04-27T20:16:40.813Z,43.20
2018-04-27T20:19:09.184Z,44.70
2018-04-27T20:21:37.518Z,44.60
2018-04-27T20:24:06.049Z,45.30
2018-04-27T20:26:33.639Z,44.90
2018-04-27T20:29:01.357Z,46.10
2018-04-27T20:31:29.030Z,46.80
2018-04-27T20:33:56.787Z,49.30
2018-04-27T20:36:25.815Z,50.00
2018-04-27T20:38:53.425Z,49.90
2018-04-27T20:41:21.045Z,50.40
2018-04-27T20:43:50.351Z,50.50
2018-04-27T20:46:19.839Z,50.40
2018-04-27T20:48:47.420Z,51.10
2018-04-27T20:51:15.000Z,50.90
2018-04-27T20:54:13.155Z,50.20
2018-04-27T20:56:46.414Z,50.80
2018-04-27T20:59:14.805Z,50.00
2018-04-27T21:01:43.147Z,49.50
2018-04-27T21:04:10.726Z,49.50
2018-04-27T21:06:38.358Z,49.80
2018-04-27T21:09:05.926Z,50.60
2018-04-27T21:11:33.725Z,51.10
2018-04-27T21:14:01.328Z,51.10
2018-04-27T21:16:28.898Z,51.60
2018-04-27T21:18:56.471Z,52.20
2018-04-27T21:21:24.071Z,51.50
2018-04-27T21:23:51.638Z,53.00
2018-04-27T21:26:20.137Z,51.30
2018-04-27T21:28:48.750Z,52.20
2018-04-27T21:31:17.087Z,52.40
2018-04-27T21:33:51.298Z,52.30
2018-04-27T21:36:18.861Z,52.40
2018-04-27T21:41:45.275Z,53.30
2018-04-27T21:44:18.608Z,52.70
2018-04-27T21:46:46.181Z,53.00
2018-04-27T21:49:14.595Z,52.40
2018-04-27T21:51:49.417Z,52.40
2018-04-27T21:54:20.927Z,52.40
2018-04-27T21:59:55.592Z,52.00
2018-04-27T22:05:34.280Z,52.70
2018-04-27T22:08:04.370Z,52.60
2018-04-27T22:10:31.934Z,54.70
2018-04-27T22:12:59.499Z,55.20
2018-04-27T22:15:27.102Z,57.00
2018-04-27T22:17:56.282Z,57.90
2018-04-27T22:20:29.874Z,57.80
2018-04-27T22:22:57.433Z,55.60
2018-04-27T22:25:25.901Z,54.50
2018-04-27T22:27:55.166Z,53.10
2018-04-27T22:30:31.343Z,53.00
2018-04-27T22:32:58.943Z,53.70
2018-04-27T22:35:32.024Z,54.00
2018-04-27T22:37:59.622Z,53.90
2018-04-27T22:40:38.398Z,53.70
2018-04-27T22:43:06.754Z,53.70
2018-04-27T22:45:36.006Z,55.10
2018-04-27T22:48:23.314Z,55.10
2018-04-27T22:50:59.138Z,55.10
2018-04-27T22:53:39.906Z,55.10
2018-04-27T22:56:07.475Z,54.90
2018-04-27T22:58:35.060Z,54.80
2018-04-27T23:01:10.529Z,55.30
2018-04-27T23:03:38.091Z,55.90
2018-04-27T23:06:07.595Z,55.40
2018-04-27T23:08:35.191Z,55.00
2018-04-27T23:14:16.198Z,55.20
2018-04-27T23:16:56.494Z,56.70
2018-04-27T23:19:25.019Z,57.40
2018-04-27T23:21:58.899Z,58.00
2018-04-27T23:24:26.505Z,58.00
2018-04-27T23:27:04.688Z,55.70
2018-04-27T23:29:32.286Z,55.60
2018-04-27T23:31:59.850Z,53.20
2018-04-27T23:34:27.421Z,52.50
2018-04-27T23:36:55.014Z,52.00
2018-04-27T23:39:23.359Z,54.10
2018-04-27T23:41:50.928Z,54.10
2018-04-27T23:44:18.543Z,51.60
2018-04-27T23:46:46.978Z,49.30
2018-04-27T23:49:14.549Z,44.10
2018-04-27T23:51:42.150Z,41.70
2018-04-27T23:54:11.211Z,41.00
2018-04-27T23:56:44.107Z,37.70
2018-04-27T23:59:12.442Z,37.10
